createdAt,value
2022-07-29T00:00:04.886Z,8.48
2022-07-29T00:02:33.428Z,6.93
2022-07-29T00:05:00.902Z,6.50
2022-07-29T00:07:28.217Z,6.28
2022-07-29T00:09:55.720Z,6.90
2022-07-29T00:12:26.230Z,6.32
2022-07-29T00:14:56.321Z,7.10
2022-07-29T00:17:24.627Z,7.72
2022-07-29T00:19:52.054Z,8.05
2022-07-29T00:22:19.542Z,8.15
2022-07-29T00:24:46.948Z,8.55
2022-07-29T00:27:14.347Z,8.25
2022-07-29T00:29:41.848Z,8.70
2022-07-29T00:32:09.333Z,10.43
2022-07-29T00:34:55.275Z,8.73
2022-07-29T00:37:22.724Z,8.20
2022-07-29T00:39:50.023Z,8.80
2022-07-29T00:42:17.739Z,9.00
2022-07-29T00:44:45.412Z,8.93
2022-07-29T00:47:13.882Z,8.68
2022-07-29T00:49:42.499Z,9.90
2022-07-29T00:52:10.881Z,10.52
2022-07-29T00:54:44.190Z,9.93
2022-07-29T00:57:12.434Z,9.45
2022-07-29T00:59:40.097Z,10.20
2022-07-29T01:02:07.811Z,10.15
2022-07-29T01:04:35.569Z,11.13
2022-07-29T01:07:03.468Z,11.23
2022-07-29T01:09:42.877Z,12.68
2022-07-29T01:12:19.980Z,12.63
2022-07-29T01:14:48.236Z,14.15
2022-07-29T01:17:21.590Z,14.63
2022-07-29T01:19:55.133Z,15.05
2022-07-29T01:22:29.516Z,14.77
2022-07-29T01:24:59.577Z,15.70
2022-07-29T01:27:30.461Z,15.88
2022-07-29T01:30:00.031Z,18.80
2022-07-29T01:32:31.684Z,18.90
2022-07-29T01:35:04.870Z,20.63
2022-07-29T01:37:44.652Z,19.55
2022-07-29T01:40:15.947Z,18.50
2022-07-29T01:42:49.432Z,17.27
2022-07-29T01:45:19.775Z,16.75
2022-07-29T01:48:00.620Z,16.55
2022-07-29T01:50:39.963Z,16.73
2022-07-29T01:53:10.767Z,18.10
2022-07-29T01:55:42.327Z,17.63
2022-07-29T01:58:10.571Z,17.83
2022-07-29T02:00:38.680Z,17.38
2022-07-29T02:03:09.186Z,16.15
2022-07-29T02:05:37.679Z,15.18
2022-07-29T02:08:05.967Z,14.80
2022-07-29T02:10:34.661Z,14.43
2022-07-29T02:13:03.137Z,13.95
2022-07-29T02:15:31.135Z,14.10
2022-07-29T02:18:01.789Z,12.93
2022-07-29T02:20:29.919Z,13.40
2022-07-29T02:22:59.034Z,12.95
2022-07-29T02:25:36.949Z,13.60
2022-07-29T02:28:06.206Z,11.98
2022-07-29T02:30:33.704Z,14.27
2022-07-29T02:33:01.367Z,14.63
2022-07-29T02:35:29.032Z,13.82
2022-07-29T02:38:21.993Z,14.77
2022-07-29T02:40:50.330Z,13.18
2022-07-29T02:43:19.179Z,13.43
2022-07-29T02:45:47.127Z,13.40
2022-07-29T02:48:21.095Z,13.90
2022-07-29T02:50:53.672Z,13.70
2022-07-29T02:53:22.626Z,15.75
2022-07-29T02:56:01.590Z,14.38
2022-07-29T02:58:55.394Z,13.85
2022-07-29T03:01:24.108Z,13.82
2022-07-29T03:03:53.598Z,14.20
2022-07-29T03:06:28.858Z,13.27
2022-07-29T03:09:12.595Z,14.32
2022-07-29T03:11:46.032Z,13.15
2022-07-29T03:14:19.213Z,12.55
2022-07-29T03:16:47.291Z,13.90
2022-07-29T03:19:15.122Z,13.70
2022-07-29T03:21:42.423Z,14.95
2022-07-29T03:24:10.812Z,13.77
2022-07-29T03:26:38.649Z,15.02
2022-07-29T03:29:05.973Z,16.33
2022-07-29T03:31:34.381Z,13.32
2022-07-29T03:34:01.733Z,13.05
2022-07-29T03:36:29.504Z,13.80
2022-07-29T03:38:57.151Z,12.57
2022-07-29T03:41:24.848Z,13.60
2022-07-29T03:43:53.646Z,15.05
2022-07-29T03:46:22.650Z,13.23
2022-07-29T03:48:52.146Z,13.77
2022-07-29T03:51:19.640Z,15.00
2022-07-29T03:54:06.177Z,14.48
2022-07-29T03:56:39.409Z,15.80
2022-07-29T03:59:07.434Z,15.95
2022-07-29T04:01:35.621Z,15.93
2022-07-29T04:04:03.393Z,13.27
2022-07-29T04:06:30.736Z,13.48
2022-07-29T04:08:58.537Z,12.90
2022-07-29T04:11:25.897Z,15.65
2022-07-29T04:13:53.293Z,10.38
2022-07-29T04:16:20.841Z,12.05
2022-07-29T04:18:48.626Z,11.80
2022-07-29T04:21:15.935Z,11.45
2022-07-29T04:23:53.987Z,9.75
2022-07-29T04:26:22.098Z,8.98
2022-07-29T04:28:49.755Z,7.93
2022-07-29T04:31:18.597Z,7.47
2022-07-29T04:33:48.604Z,7.47
2022-07-29T04:36:29.158Z,6.63
2022-07-29T04:38:57.289Z,6.47
2022-07-29T04:41:32.726Z,6.45
2022-07-29T04:44:06.889Z,6.10
2022-07-29T04:46:35.133Z,6.47
2022-07-29T04:49:04.451Z,6.28
2022-07-29T04:51:32.653Z,5.75
2022-07-29T04:54:00.236Z,6.07
2022-07-29T04:56:27.675Z,6.20
2022-07-29T04:58:55.059Z,5.82
2022-07-29T05:01:22.474Z,6.68
2022-07-29T05:03:49.797Z,7.00
2022-07-29T05:06:17.176Z,6.18
2022-07-29T05:08:44.672Z,6.97
2022-07-29T05:11:13.578Z,5.80
2022-07-29T05:13:46.006Z,6.80
2022-07-29T05:16:14.748Z,8.73
2022-07-29T05:18:42.396Z,8.05
2022-07-29T05:21:09.912Z,6.80
2022-07-29T05:23:37.366Z,7.35
2022-07-29T05:26:04.686Z,5.97
2022-07-29T05:28:36.029Z,5.72
2022-07-29T05:31:03.560Z,7.53
2022-07-29T05:33:35.418Z,5.78
2022-07-29T05:36:06.523Z,7.43
2022-07-29T05:38:34.593Z,5.50
2022-07-29T05:41:02.169Z,5.72
2022-07-29T05:43:30.015Z,5.30
2022-07-29T05:45:57.931Z,5.60
2022-07-29T05:48:25.579Z,5.63
2022-07-29T05:50:53.214Z,5.53
2022-07-29T05:53:21.086Z,5.20
2022-07-29T05:55:52.761Z,4.70
2022-07-29T05:58:20.047Z,5.45
2022-07-29T06:00:48.054Z,5.80
2022-07-29T06:03:15.405Z,5.90
2022-07-29T06:05:42.687Z,4.82
2022-07-29T06:08:09.991Z,4.32
2022-07-29T06:10:37.429Z,5.18
2022-07-29T06:13:05.082Z,5.65
2022-07-29T06:15:32.394Z,4.40
2022-07-29T06:18:01.369Z,4.60
2022-07-29T06:20:33.241Z,4.63
2022-07-29T06:23:01.206Z,5.40
2022-07-29T06:25:35.967Z,4.65
2022-07-29T06:28:03.303Z,7.38
2022-07-29T06:30:31.006Z,6.57
2022-07-29T06:32:58.395Z,4.80
2022-07-29T06:35:39.437Z,4.30
2022-07-29T06:38:25.662Z,4.60
2022-07-29T06:41:03.551Z,4.72
2022-07-29T06:43:51.865Z,3.83
2022-07-29T06:46:22.030Z,5.65
2022-07-29T06:48:50.035Z,3.72
2022-07-29T06:51:22.531Z,4.35
2022-07-29T06:53:58.188Z,4.10
2022-07-29T06:56:29.170Z,5.97
2022-07-29T06:58:57.708Z,5.55
2022-07-29T07:01:25.084Z,3.83
2022-07-29T07:03:52.404Z,3.55
2022-07-29T07:06:19.852Z,3.80
2022-07-29T07:08:47.186Z,5.55
2022-07-29T07:11:14.745Z,5.07
2022-07-29T07:13:42.069Z,4.15
2022-07-29T07:16:09.369Z,3.70
2022-07-29T07:18:36.687Z,3.63
2022-07-29T07:21:06.018Z,4.13
2022-07-29T07:23:33.522Z,6.47
2022-07-29T07:26:00.807Z,3.35
2022-07-29T07:28:28.194Z,3.25
2022-07-29T07:30:55.602Z,3.08
2022-07-29T07:33:22.901Z,5.18
2022-07-29T07:35:50.481Z,3.22
2022-07-29T07:38:18.172Z,4.88
2022-07-29T07:40:47.450Z,4.40
2022-07-29T07:43:14.919Z,3.58
2022-07-29T07:45:43.930Z,3.17
2022-07-29T07:48:11.335Z,3.47
2022-07-29T07:50:39.533Z,3.33
2022-07-29T07:53:07.076Z,4.05
2022-07-29T07:55:53.467Z,3.72
2022-07-29T07:58:21.683Z,4.35
2022-07-29T08:00:49.429Z,3.33
2022-07-29T08:03:17.473Z,3.45
2022-07-29T08:05:45.138Z,6.63
2022-07-29T08:08:12.553Z,3.80
2022-07-29T08:10:56.753Z,4.05
2022-07-29T08:13:26.392Z,4.90
2022-07-29T08:16:01.260Z,3.65
2022-07-29T08:18:32.581Z,4.18
2022-07-29T08:21:00.385Z,3.75
2022-07-29T08:23:32.904Z,3.53
2022-07-29T08:26:15.349Z,3.80
2022-07-29T08:28:47.106Z,3.40
2022-07-29T08:31:15.255Z,5.25
2022-07-29T08:33:43.010Z,4.60
2022-07-29T08:36:10.677Z,5.70
2022-07-29T08:38:38.106Z,3.25
2022-07-29T08:41:05.402Z,3.20
2022-07-29T08:43:33.156Z,3.45
2022-07-29T08:46:00.640Z,3.28
2022-07-29T08:48:27.986Z,3.03
2022-07-29T08:50:56.931Z,5.32
2022-07-29T08:53:25.836Z,4.78
2022-07-29T08:55:53.589Z,3.72
2022-07-29T08:58:22.996Z,2.95
2022-07-29T09:00:52.756Z,2.92
2022-07-29T09:03:20.941Z,4.55
2022-07-29T09:05:48.800Z,4.20
2022-07-29T09:08:16.673Z,4.72
2022-07-29T09:10:45.401Z,2.50
2022-07-29T09:13:12.689Z,2.85
2022-07-29T09:15:40.172Z,2.72
2022-07-29T09:18:07.567Z,5.80
2022-07-29T09:21:12.339Z,4.85
2022-07-29T09:23:40.867Z,4.70
2022-07-29T09:26:08.128Z,2.97
2022-07-29T09:28:35.864Z,5.15
2022-07-29T09:31:07.693Z,3.70
2022-07-29T09:33:36.730Z,3.70
2022-07-29T09:36:08.287Z,3.53
2022-07-29T09:38:36.373Z,6.55
2022-07-29T09:41:05.855Z,4.15
2022-07-29T09:43:33.863Z,5.28
2022-07-29T09:46:14.066Z,3.03
2022-07-29T09:48:42.862Z,2.83
2022-07-29T09:51:24.108Z,4.72
2022-07-29T09:53:53.058Z,4.78
2022-07-29T09:56:21.204Z,5.15
2022-07-29T09:58:48.556Z,3.50
2022-07-29T10:01:16.902Z,3.13
2022-07-29T10:03:54.261Z,4.63
2022-07-29T10:06:21.767Z,3.00
2022-07-29T10:08:50.840Z,3.13
2022-07-29T10:11:19.221Z,3.20
2022-07-29T10:13:47.687Z,3.05
2022-07-29T10:16:16.022Z,3.30
2022-07-29T10:18:48.261Z,5.78
2022-07-29T10:21:35.365Z,3.88
2022-07-29T10:24:03.401Z,4.05
2022-07-29T10:26:32.081Z,3.20
2022-07-29T10:28:59.368Z,4.88
2022-07-29T10:31:31.206Z,3.25
2022-07-29T10:33:58.930Z,5.07
2022-07-29T10:36:43.396Z,3.25
2022-07-29T10:39:44.588Z,3.03
2022-07-29T10:42:17.053Z,5.18
2022-07-29T10:44:47.597Z,3.60
2022-07-29T10:47:26.057Z,3.50
2022-07-29T10:50:04.263Z,4.18
2022-07-29T10:52:50.287Z,4.80
2022-07-29T10:58:24.721Z,5.60
2022-07-29T11:00:53.222Z,4.20
2022-07-29T11:03:39.470Z,5.28
2022-07-29T11:06:17.895Z,4.22
2022-07-29T11:08:45.520Z,5.20
2022-07-29T11:11:22.190Z,3.28
2022-07-29T11:13:52.354Z,2.92
2022-07-29T11:16:25.306Z,3.30
2022-07-29T11:19:13.373Z,3.30
2022-07-29T11:21:55.376Z,3.65
2022-07-29T11:24:32.228Z,5.43
2022-07-29T11:27:13.174Z,3.67
2022-07-29T11:29:51.382Z,4.63
2022-07-29T11:32:23.270Z,4.20
2022-07-29T11:34:51.794Z,6.18
2022-07-29T11:37:20.096Z,4.60
2022-07-29T11:40:01.479Z,2.83
2022-07-29T11:42:34.171Z,4.15
2022-07-29T11:45:41.579Z,3.13
2022-07-29T11:47:55.267Z,3.65
2022-07-29T11:50:34.482Z,2.92
2022-07-29T11:53:08.926Z,4.63
2022-07-29T11:55:38.897Z,3.30
2022-07-29T11:58:25.265Z,3.08
2022-07-29T12:03:43.606Z,4.70
2022-07-29T12:06:14.865Z,2.65
2022-07-29T12:08:46.253Z,3.78
2022-07-29T12:11:21.222Z,2.35
2022-07-29T12:13:50.041Z,3.78
2022-07-29T12:16:25.653Z,3.70
2022-07-29T12:19:04.087Z,2.78
2022-07-29T12:21:52.371Z,2.20
2022-07-29T12:24:27.413Z,3.92
2022-07-29T12:26:55.936Z,4.13
2022-07-29T12:29:34.485Z,3.13
2022-07-29T12:32:04.122Z,2.75
2022-07-29T12:34:32.057Z,4.88
2022-07-29T12:36:59.530Z,2.35
2022-07-29T12:39:29.207Z,1.98
2022-07-29T12:42:03.928Z,4.35
2022-07-29T12:44:52.270Z,2.75
2022-07-29T12:47:20.243Z,2.20
2022-07-29T12:49:47.992Z,2.13
2022-07-29T12:52:32.054Z,4.55
2022-07-29T12:54:59.707Z,2.80
2022-07-29T12:57:27.292Z,4.07
2022-07-29T13:00:01.658Z,3.67
2022-07-29T13:02:29.313Z,2.38
2022-07-29T13:04:57.996Z,2.53
2022-07-29T13:07:54.707Z,2.72
2022-07-29T13:10:18.409Z,3.33
2022-07-29T13:13:11.305Z,3.47
2022-07-29T13:15:39.758Z,6.57
2022-07-29T13:18:07.800Z,4.30
2022-07-29T13:20:35.260Z,4.03
2022-07-29T13:23:02.587Z,4.75
2022-07-29T13:25:31.645Z,3.95
2022-07-29T13:27:59.387Z,4.10
2022-07-29T13:30:27.162Z,4.65
2022-07-29T13:32:54.715Z,6.15
2022-07-29T13:35:22.549Z,5.30
2022-07-29T13:37:49.877Z,3.72
2022-07-29T13:40:19.295Z,5.32
2022-07-29T13:42:46.966Z,3.70
2022-07-29T13:45:14.686Z,4.10
2022-07-29T13:47:47.662Z,3.67
2022-07-29T13:50:16.985Z,4.70
2022-07-29T13:52:44.478Z,5.32
2022-07-29T13:55:11.748Z,4.03
2022-07-29T13:57:39.132Z,5.00
2022-07-29T14:00:07.252Z,4.57
2022-07-29T14:02:34.738Z,3.20
2022-07-29T14:05:07.630Z,6.82
2022-07-29T14:07:36.838Z,3.47
2022-07-29T14:10:05.252Z,3.22
2022-07-29T14:12:32.731Z,5.07
2022-07-29T14:14:59.973Z,4.35
2022-07-29T14:17:27.349Z,3.42
2022-07-29T14:19:54.611Z,6.10
2022-07-29T14:22:23.111Z,2.45
2022-07-29T14:24:53.337Z,3.38
2022-07-29T14:27:20.642Z,3.88
2022-07-29T14:30:05.546Z,4.50
2022-07-29T14:32:32.854Z,3.90
2022-07-29T14:35:00.134Z,4.53
2022-07-29T14:37:27.434Z,3.85
2022-07-29T14:39:55.529Z,3.25
2022-07-29T14:42:22.884Z,3.78
2022-07-29T14:44:50.399Z,3.58
2022-07-29T14:47:18.100Z,3.13
2022-07-29T14:49:45.335Z,3.50
2022-07-29T14:52:12.669Z,3.85
2022-07-29T14:54:40.140Z,3.33
2022-07-29T14:57:07.587Z,4.10
2022-07-29T14:59:35.073Z,3.17
2022-07-29T15:02:03.095Z,5.00
2022-07-29T15:04:31.173Z,3.05
2022-07-29T15:06:58.939Z,3.38
2022-07-29T15:09:26.234Z,3.85
2022-07-29T15:11:53.667Z,3.90
2022-07-29T15:14:21.183Z,3.88
2022-07-29T15:16:48.691Z,5.03
2022-07-29T15:19:16.230Z,3.45
2022-07-29T15:21:59.335Z,4.82
2022-07-29T15:24:27.054Z,4.55
2022-07-29T15:26:55.279Z,3.17
2022-07-29T15:29:22.787Z,3.10
2022-07-29T15:31:50.390Z,3.25
2022-07-29T15:34:18.030Z,3.92
2022-07-29T15:36:53.635Z,3.20
2022-07-29T15:39:22.017Z,3.45
2022-07-29T15:41:49.395Z,3.25
2022-07-29T15:44:16.708Z,3.47
2022-07-29T15:47:02.861Z,3.85
2022-07-29T15:49:47.970Z,4.35
2022-07-29T15:52:25.676Z,5.30
2022-07-29T15:54:54.461Z,3.60
2022-07-29T15:57:21.814Z,3.60
2022-07-29T15:59:49.187Z,3.67
2022-07-29T16:02:16.578Z,3.20
2022-07-29T16:04:44.936Z,4.57
2022-07-29T16:07:12.490Z,3.80
2022-07-29T16:09:49.336Z,4.10
2022-07-29T16:12:19.692Z,4.80
2022-07-29T16:14:49.478Z,4.07
2022-07-29T16:17:17.652Z,4.78
2022-07-29T16:19:45.471Z,4.25
2022-07-29T16:22:13.362Z,3.30
2022-07-29T16:24:40.849Z,3.50
2022-07-29T16:27:08.283Z,3.60
2022-07-29T16:29:37.180Z,3.75
2022-07-29T16:32:05.750Z,3.88
2022-07-29T16:34:33.103Z,3.38
2022-07-29T16:37:00.931Z,4.80
2022-07-29T16:39:28.504Z,3.13
2022-07-29T16:41:59.805Z,3.42
2022-07-29T16:44:27.817Z,3.40
2022-07-29T16:46:55.947Z,3.60
2022-07-29T16:49:23.684Z,3.83
2022-07-29T16:51:51.060Z,4.72
2022-07-29T16:54:18.450Z,4.15
2022-07-29T16:56:46.285Z,4.05
2022-07-29T16:59:13.600Z,3.13
2022-07-29T17:01:40.973Z,3.80
2022-07-29T17:04:08.562Z,3.20
2022-07-29T17:06:40.558Z,4.53
2022-07-29T17:09:09.091Z,4.55
2022-07-29T17:11:53.050Z,3.22
2022-07-29T17:14:26.241Z,4.30
2022-07-29T17:17:00.488Z,5.47
2022-07-29T17:19:35.433Z,3.15
2022-07-29T17:22:10.584Z,3.42
2022-07-29T17:24:45.761Z,5.03
2022-07-29T17:27:13.269Z,4.85
2022-07-29T17:29:40.745Z,4.50
2022-07-29T17:32:09.077Z,6.05
2022-07-29T17:34:40.310Z,3.55
2022-07-29T17:37:09.477Z,4.20
2022-07-29T17:39:36.993Z,3.33
2022-07-29T17:42:05.170Z,3.47
2022-07-29T17:44:36.230Z,3.53
2022-07-29T17:47:05.755Z,4.28
2022-07-29T17:49:36.020Z,4.28
2022-07-29T17:52:04.979Z,5.15
2022-07-29T17:54:32.589Z,3.90
2022-07-29T17:57:00.878Z,3.80
2022-07-29T17:59:28.448Z,4.97
2022-07-29T18:01:55.886Z,6.20
2022-07-29T18:04:23.743Z,5.55
2022-07-29T18:06:51.557Z,3.80
2022-07-29T18:09:19.148Z,3.90
2022-07-29T18:11:47.535Z,4.82
2022-07-29T18:14:15.027Z,4.15
2022-07-29T18:16:42.462Z,4.25
2022-07-29T18:19:09.859Z,4.60
2022-07-29T18:21:51.181Z,3.88
2022-07-29T18:24:25.537Z,4.07
2022-07-29T18:26:53.281Z,4.05
2022-07-29T18:29:20.610Z,6.10
2022-07-29T18:31:48.086Z,4.93
2022-07-29T18:34:18.067Z,5.88
2022-07-29T18:36:46.001Z,4.97
2022-07-29T18:39:19.162Z,4.25
2022-07-29T18:41:50.748Z,5.03
2022-07-29T18:44:22.760Z,6.68
2022-07-29T18:46:51.052Z,4.45
2022-07-29T18:49:18.718Z,5.70
2022-07-29T18:51:46.429Z,5.90
2022-07-29T18:54:13.784Z,5.53
2022-07-29T18:56:44.332Z,5.43
2022-07-29T18:59:11.710Z,4.95
2022-07-29T19:01:39.188Z,4.30
2022-07-29T19:04:06.862Z,5.45
2022-07-29T19:06:34.317Z,4.47
2022-07-29T19:09:01.697Z,5.18
2022-07-29T19:11:28.963Z,5.63
2022-07-29T19:13:56.249Z,6.68
2022-07-29T19:16:23.925Z,6.47
2022-07-29T19:18:51.637Z,7.35
2022-07-29T19:21:19.431Z,4.70
2022-07-29T19:24:02.105Z,5.38
2022-07-29T19:26:36.636Z,5.03
2022-07-29T19:29:04.264Z,4.68
2022-07-29T19:31:31.816Z,5.55
2022-07-29T19:33:59.241Z,8.10
2022-07-29T19:36:27.376Z,6.00
2022-07-29T19:38:54.814Z,6.07
2022-07-29T19:41:22.068Z,5.93
2022-07-29T19:43:51.760Z,5.65
2022-07-29T19:46:21.075Z,6.70
2022-07-29T19:48:48.803Z,5.78
2022-07-29T19:51:16.315Z,5.88
2022-07-29T19:53:43.729Z,8.40
2022-07-29T19:56:11.052Z,5.95
2022-07-29T19:58:40.548Z,6.53
2022-07-29T20:01:10.250Z,9.32
2022-07-29T20:03:40.198Z,6.05
2022-07-29T20:06:07.878Z,7.07
2022-07-29T20:08:35.384Z,5.75
2022-07-29T20:11:03.759Z,6.40
2022-07-29T20:13:33.697Z,8.50
2022-07-29T20:16:01.915Z,6.07
2022-07-29T20:18:29.408Z,6.80
2022-07-29T20:20:57.632Z,6.50
2022-07-29T20:23:25.327Z,8.00
2022-07-29T20:25:52.794Z,9.35
2022-07-29T20:28:22.583Z,6.78
2022-07-29T20:30:50.252Z,7.38
2022-07-29T20:33:17.594Z,8.30
2022-07-29T20:35:45.044Z,7.38
2022-07-29T20:38:16.423Z,6.90
2022-07-29T20:40:45.788Z,7.57
2022-07-29T20:43:13.067Z,7.10
2022-07-29T20:45:40.546Z,7.15
2022-07-29T20:48:08.589Z,7.32
2022-07-29T20:50:36.028Z,7.22
2022-07-29T20:53:03.399Z,7.00
2022-07-29T20:55:32.077Z,7.75
2022-07-29T20:57:59.795Z,6.80
2022-07-29T21:00:27.408Z,7.70
2022-07-29T21:02:55.107Z,7.65
2022-07-29T21:05:22.721Z,6.88
2022-07-29T21:07:50.097Z,6.65
2022-07-29T21:10:18.462Z,5.78
2022-07-29T21:12:48.983Z,6.30
2022-07-29T21:15:16.435Z,6.65
2022-07-29T21:17:51.983Z,7.10
2022-07-29T21:20:20.679Z,6.35
2022-07-29T21:22:47.970Z,10.20
2022-07-29T21:25:15.310Z,6.15
2022-07-29T21:28:01.215Z,6.18
2022-07-29T21:30:28.597Z,7.90
2022-07-29T21:32:55.953Z,6.32
2022-07-29T21:36:03.462Z,6.50
2022-07-29T21:38:10.678Z,5.97
2022-07-29T21:40:38.371Z,6.30
2022-07-29T21:43:06.092Z,7.60
2022-07-29T21:45:33.597Z,10.02
2022-07-29T21:48:01.199Z,6.43
2022-07-29T21:50:28.630Z,7.80
2022-07-29T21:52:56.052Z,6.78
2022-07-29T21:55:24.378Z,6.47
2022-07-29T21:57:54.467Z,6.28
2022-07-29T22:00:25.562Z,6.75
2022-07-29T22:02:56.026Z,6.57
2022-07-29T22:05:24.195Z,6.57
2022-07-29T22:07:54.265Z,7.82
2022-07-29T22:10:23.664Z,6.00
2022-07-29T22:12:52.120Z,6.15
2022-07-29T22:15:19.644Z,7.53
2022-07-29T22:17:46.973Z,6.55
2022-07-29T22:20:14.320Z,6.10
2022-07-29T22:22:41.752Z,6.57
2022-07-29T22:25:09.773Z,6.07
2022-07-29T22:27:37.280Z,6.82
2022-07-29T22:30:06.101Z,7.57
2022-07-29T22:32:33.789Z,7.10
2022-07-29T22:35:01.313Z,6.57
2022-07-29T22:37:28.924Z,6.15
2022-07-29T22:39:56.214Z,6.20
2022-07-29T22:42:23.562Z,6.03
2022-07-29T22:44:50.928Z,6.80
2022-07-29T22:47:18.296Z,6.07
2022-07-29T22:50:06.335Z,5.95
2022-07-29T22:52:33.788Z,6.45
2022-07-29T22:55:01.426Z,6.90
2022-07-29T22:57:28.931Z,6.30
2022-07-29T22:59:56.318Z,5.90
2022-07-29T23:02:23.602Z,6.28
2022-07-29T23:04:51.001Z,6.32
2022-07-29T23:07:18.595Z,6.25
2022-07-29T23:09:45.885Z,6.50
2022-07-29T23:12:13.294Z,6.75
2022-07-29T23:14:40.618Z,6.32
2022-07-29T23:17:08.403Z,5.80
2022-07-29T23:19:35.775Z,6.95
2022-07-29T23:22:03.097Z,6.50
2022-07-29T23:24:30.488Z,6.40
2022-07-29T23:26:58.029Z,6.53
2022-07-29T23:29:25.862Z,5.90
2022-07-29T23:31:53.223Z,5.55
2022-07-29T23:34:20.493Z,6.82
2022-07-29T23:36:47.824Z,5.20
2022-07-29T23:39:15.370Z,5.28
2022-07-29T23:41:42.961Z,5.47
2022-07-29T23:44:10.274Z,5.15
2022-07-29T23:46:37.635Z,5.10
2022-07-29T23:49:05.248Z,5.00
2022-07-29T23:51:33.081Z,5.55
2022-07-29T23:54:00.525Z,5.13
2022-07-29T23:56:28.236Z,6.32
2022-07-29T23:58:55.522Z,5.60
